createdAt,value
2019-03-19T00:00:22.579Z,22.48
2019-03-19T00:02:51.407Z,30.17
2019-03-19T00:05:20.185Z,25.62
2019-03-19T00:07:49.053Z,26.90
2019-03-19T00:10:17.898Z,24.65
2019-03-19T00:12:46.672Z,23.40
2019-03-19T00:15:15.765Z,23.70
2019-03-19T00:17:44.543Z,21.02
2019-03-19T00:20:14.829Z,20.12
2019-03-19T00:22:43.708Z,24.35
2019-03-19T00:25:12.487Z,26.45
2019-03-19T00:27:41.348Z,27.70
2019-03-19T00:30:18.350Z,24.80
2019-03-19T00:32:47.117Z,24.20
2019-03-19T00:35:15.885Z,25.90
2019-03-19T00:37:46.503Z,22.75
2019-03-19T00:40:15.739Z,25.80
2019-03-19T00:42:44.580Z,27.77
2019-03-19T00:45:13.849Z,30.23
2019-03-19T00:47:42.694Z,25.62
2019-03-19T00:50:13.724Z,23.40
2019-03-19T00:52:42.523Z,22.55
2019-03-19T00:55:13.417Z,26.17
2019-03-19T00:57:42.190Z,23.42
2019-03-19T01:00:18.453Z,25.32
2019-03-19T01:02:47.234Z,27.20
2019-03-19T01:05:16.008Z,24.47
2019-03-19T01:07:44.872Z,28.35
2019-03-19T01:10:17.001Z,22.95
2019-03-19T01:12:45.163Z,23.55
2019-03-19T01:15:14.619Z,21.60
2019-03-19T01:17:43.774Z,27.55
2019-03-19T01:20:14.657Z,25.05
2019-03-19T01:22:43.560Z,25.35
2019-03-19T01:25:12.398Z,21.07
2019-03-19T01:27:41.201Z,24.67
2019-03-19T01:30:15.262Z,18.95
2019-03-19T01:32:44.396Z,22.30
2019-03-19T01:35:13.161Z,20.35
2019-03-19T01:37:41.986Z,24.87
2019-03-19T01:40:12.201Z,25.32
2019-03-19T01:42:41.076Z,21.85
2019-03-19T01:45:12.342Z,24.77
2019-03-19T01:47:41.111Z,25.65
2019-03-19T01:50:13.952Z,23.65
2019-03-19T01:52:43.658Z,29.02
2019-03-19T01:55:13.837Z,20.48
2019-03-19T01:57:42.616Z,24.98
2019-03-19T02:00:15.798Z,24.77
2019-03-19T02:02:45.029Z,25.77
2019-03-19T02:05:13.808Z,25.97
2019-03-19T02:07:42.691Z,23.80
2019-03-19T02:10:13.565Z,25.80
2019-03-19T02:12:42.431Z,22.55
2019-03-19T02:15:15.582Z,21.30
2019-03-19T02:17:44.487Z,23.75
2019-03-19T02:20:17.267Z,22.85
2019-03-19T02:22:46.417Z,25.12
2019-03-19T02:25:15.195Z,25.90
2019-03-19T02:27:44.060Z,19.87
2019-03-19T02:30:16.694Z,22.65
2019-03-19T02:32:45.603Z,27.00
2019-03-19T02:35:14.519Z,25.72
2019-03-19T02:37:43.474Z,21.80
2019-03-19T02:40:16.419Z,25.10
2019-03-19T02:42:45.268Z,28.42
2019-03-19T02:45:15.040Z,24.37
2019-03-19T02:47:43.933Z,22.45
2019-03-19T02:50:17.516Z,25.65
2019-03-19T02:52:46.485Z,23.45
2019-03-19T02:55:15.329Z,27.37
2019-03-19T02:57:44.137Z,23.18
2019-03-19T03:00:15.681Z,29.40
2019-03-19T03:02:44.527Z,25.90
2019-03-19T03:05:20.706Z,34.43
2019-03-19T03:07:49.556Z,26.57
2019-03-19T03:10:18.408Z,28.83
2019-03-19T03:12:47.247Z,24.15
2019-03-19T03:15:16.062Z,27.40
2019-03-19T03:17:44.851Z,22.13
2019-03-19T03:20:14.932Z,24.32
2019-03-19T03:22:43.815Z,27.80
2019-03-19T03:25:19.215Z,26.12
2019-03-19T03:27:47.984Z,27.98
2019-03-19T03:30:22.069Z,23.77
2019-03-19T03:32:51.296Z,21.33
2019-03-19T03:35:20.213Z,31.73
2019-03-19T03:37:49.072Z,23.18
2019-03-19T03:40:18.937Z,28.83
2019-03-19T03:42:47.776Z,24.27
2019-03-19T03:45:17.831Z,26.40
2019-03-19T03:47:46.686Z,27.70
2019-03-19T03:50:16.684Z,27.80
2019-03-19T03:52:45.535Z,25.43
2019-03-19T03:55:15.294Z,27.60
2019-03-19T03:57:44.078Z,26.82
2019-03-19T04:00:20.028Z,19.85
2019-03-19T04:02:48.875Z,22.62
2019-03-19T04:05:17.746Z,24.52
2019-03-19T04:07:46.577Z,23.75
2019-03-19T04:10:17.627Z,26.90
2019-03-19T04:12:46.470Z,27.87
2019-03-19T04:15:16.828Z,21.12
2019-03-19T04:17:45.768Z,26.07
2019-03-19T04:20:16.074Z,22.35
2019-03-19T04:22:44.931Z,30.23
2019-03-19T04:25:13.851Z,29.00
2019-03-19T04:27:42.683Z,25.23
2019-03-19T04:30:15.746Z,23.00
2019-03-19T04:32:44.575Z,30.43
2019-03-19T04:35:13.430Z,26.37
2019-03-19T04:37:42.318Z,25.15
2019-03-19T04:40:13.232Z,22.55
2019-03-19T04:42:41.999Z,22.42
2019-03-19T04:45:15.233Z,26.70
2019-03-19T04:47:44.001Z,20.43
2019-03-19T04:50:14.115Z,24.72
2019-03-19T04:52:42.997Z,25.62
2019-03-19T04:55:13.938Z,20.95
2019-03-19T04:57:43.076Z,22.95
2019-03-19T05:00:13.908Z,20.02
2019-03-19T05:02:42.756Z,25.92
2019-03-19T05:05:12.747Z,23.80
2019-03-19T05:07:41.564Z,24.07
2019-03-19T05:10:17.985Z,28.32
2019-03-19T05:12:46.763Z,24.57
2019-03-19T05:15:15.654Z,19.95
2019-03-19T05:17:44.428Z,19.62
2019-03-19T05:20:17.429Z,25.12
2019-03-19T05:22:46.260Z,21.05
2019-03-19T05:25:15.060Z,24.23
2019-03-19T05:27:43.918Z,25.08
2019-03-19T05:30:15.076Z,22.40
2019-03-19T05:32:44.124Z,24.50
2019-03-19T05:35:12.894Z,24.65
2019-03-19T05:37:41.733Z,25.43
2019-03-19T05:40:18.428Z,28.55
2019-03-19T05:42:47.339Z,27.45
2019-03-19T05:45:16.555Z,24.02
2019-03-19T05:47:45.327Z,30.85
2019-03-19T05:50:16.050Z,23.95
2019-03-19T05:52:44.891Z,28.40
2019-03-19T05:55:14.307Z,26.20
2019-03-19T05:57:49.613Z,30.82
2019-03-19T06:00:15.479Z,27.55
2019-03-19T06:02:44.326Z,26.73
2019-03-19T06:05:13.155Z,23.20
2019-03-19T06:07:41.989Z,27.00
2019-03-19T06:10:13.286Z,28.60
2019-03-19T06:12:42.142Z,31.60
2019-03-19T06:15:12.768Z,30.35
2019-03-19T06:17:41.629Z,27.40
2019-03-19T06:20:14.457Z,24.45
2019-03-19T06:22:43.595Z,21.60
2019-03-19T06:25:13.113Z,24.23
2019-03-19T06:27:41.990Z,18.73
2019-03-19T06:30:19.082Z,43.55
2019-03-19T06:32:47.982Z,35.92
2019-03-19T06:35:16.843Z,28.27
2019-03-19T06:37:45.701Z,37.70
2019-03-19T06:40:19.839Z,28.27
2019-03-19T06:42:48.650Z,27.70
2019-03-19T06:45:19.806Z,27.55
2019-03-19T06:47:50.304Z,34.70
2019-03-19T06:50:20.232Z,27.20
2019-03-19T06:52:49.052Z,22.87
2019-03-19T06:55:18.976Z,22.98
2019-03-19T06:57:47.777Z,29.07
2019-03-19T07:00:24.310Z,25.75
2019-03-19T07:02:53.087Z,25.48
2019-03-19T07:05:22.468Z,24.05
2019-03-19T07:07:51.593Z,32.48
2019-03-19T07:10:21.536Z,26.52
2019-03-19T07:12:50.379Z,23.30
2019-03-19T07:15:20.126Z,25.17
2019-03-19T07:17:48.968Z,23.55
2019-03-19T07:20:25.622Z,27.95
2019-03-19T07:22:54.473Z,26.80
2019-03-19T07:25:23.577Z,27.25
2019-03-19T07:27:52.416Z,26.42
2019-03-19T07:30:27.497Z,32.98
2019-03-19T07:32:56.257Z,30.77
2019-03-19T07:35:25.125Z,30.10
2019-03-19T07:37:53.915Z,37.80
2019-03-19T07:40:22.966Z,32.55
2019-03-19T07:42:51.834Z,31.68
2019-03-19T07:45:22.059Z,32.25
2019-03-19T07:47:50.842Z,36.45
2019-03-19T07:50:20.660Z,34.15
2019-03-19T07:52:49.422Z,33.05
2019-03-19T07:55:18.576Z,27.95
2019-03-19T07:57:47.453Z,30.97
2019-03-19T08:00:21.097Z,32.80
2019-03-19T08:02:49.871Z,27.20
2019-03-19T08:05:18.696Z,29.77
2019-03-19T08:07:47.492Z,37.38
2019-03-19T08:10:17.471Z,29.15
2019-03-19T08:12:46.351Z,31.37
2019-03-19T08:15:16.666Z,26.85
2019-03-19T08:17:45.540Z,24.63
2019-03-19T08:20:17.796Z,22.67
2019-03-19T08:22:46.647Z,23.42
2019-03-19T08:25:18.381Z,18.90
2019-03-19T08:27:47.189Z,21.55
2019-03-19T08:30:24.290Z,19.67
2019-03-19T08:32:52.560Z,18.25
2019-03-19T08:35:21.409Z,21.20
2019-03-19T08:37:50.195Z,19.62
2019-03-19T08:40:19.312Z,18.27
2019-03-19T08:42:48.083Z,19.48
2019-03-19T08:45:19.449Z,19.48
2019-03-19T08:47:48.551Z,18.75
2019-03-19T08:50:22.406Z,18.67
2019-03-19T08:52:51.255Z,21.90
2019-03-19T08:55:20.077Z,16.95
2019-03-19T08:57:48.849Z,13.83
2019-03-19T09:00:22.655Z,18.35
2019-03-19T09:02:51.465Z,19.23
2019-03-19T09:05:20.246Z,17.57
2019-03-19T09:07:49.019Z,20.45
2019-03-19T09:10:19.229Z,18.17
2019-03-19T09:12:48.887Z,19.30
2019-03-19T09:15:20.836Z,22.65
2019-03-19T09:17:49.654Z,16.62
2019-03-19T09:20:18.821Z,17.17
2019-03-19T09:22:47.883Z,16.70
2019-03-19T09:25:16.685Z,15.45
2019-03-19T09:27:45.461Z,15.30
2019-03-19T09:30:19.127Z,18.07
2019-03-19T09:32:47.985Z,17.87
2019-03-19T09:35:16.777Z,15.48
2019-03-19T09:37:57.315Z,19.15
2019-03-19T09:40:17.277Z,17.57
2019-03-19T09:42:46.048Z,17.67
2019-03-19T09:45:15.867Z,20.27
2019-03-19T09:47:44.658Z,16.20
2019-03-19T09:50:19.350Z,18.02
2019-03-19T09:52:48.186Z,19.32
2019-03-19T09:55:17.129Z,18.32
2019-03-19T09:57:45.895Z,18.73
2019-03-19T10:00:22.777Z,18.50
2019-03-19T10:02:51.553Z,16.97
2019-03-19T10:05:20.665Z,15.30
2019-03-19T10:07:49.766Z,15.20
2019-03-19T10:10:23.695Z,18.50
2019-03-19T10:12:52.584Z,18.52
2019-03-19T10:15:21.660Z,14.47
2019-03-19T10:17:50.443Z,16.17
2019-03-19T10:20:23.923Z,14.73
2019-03-19T10:22:52.746Z,22.17
2019-03-19T10:25:21.525Z,18.85
2019-03-19T10:27:50.289Z,14.68
2019-03-19T10:30:23.238Z,19.05
2019-03-19T10:35:19.998Z,19.02
2019-03-19T10:37:48.890Z,15.70
2019-03-19T10:40:19.879Z,19.02
2019-03-19T10:42:48.719Z,14.15
2019-03-19T10:45:22.443Z,13.43
2019-03-19T10:50:26.955Z,12.23
2019-03-19T10:52:55.804Z,15.15
2019-03-19T10:55:24.583Z,13.65
2019-03-19T10:57:53.381Z,16.73
2019-03-19T11:00:22.916Z,18.65
2019-03-19T11:02:51.830Z,13.50
2019-03-19T11:05:22.737Z,12.98
2019-03-19T11:07:51.952Z,17.45
2019-03-19T11:10:21.140Z,18.30
2019-03-19T11:12:50.245Z,13.18
2019-03-19T11:15:21.173Z,17.40
2019-03-19T11:17:49.966Z,14.28
2019-03-19T11:20:19.718Z,18.35
2019-03-19T11:22:48.769Z,14.07
2019-03-19T11:25:28.867Z,17.05
2019-03-19T11:27:57.628Z,13.05
2019-03-19T11:30:27.645Z,13.08
2019-03-19T11:32:56.452Z,13.45
2019-03-19T11:35:25.242Z,13.40
2019-03-19T11:37:54.024Z,16.10
2019-03-19T11:40:25.441Z,14.98
2019-03-19T11:42:53.296Z,10.18
2019-03-19T11:45:24.186Z,15.03
2019-03-19T11:47:53.050Z,12.98
2019-03-19T11:50:23.909Z,13.20
2019-03-19T11:52:52.682Z,13.45
2019-03-19T11:55:21.543Z,12.68
2019-03-19T11:57:50.787Z,15.32
2019-03-19T12:00:51.433Z,11.50
2019-03-19T12:03:20.622Z,12.47
2019-03-19T12:05:49.458Z,16.30
2019-03-19T12:08:18.264Z,14.10
2019-03-19T12:10:47.033Z,12.07
2019-03-19T12:13:15.797Z,10.95
2019-03-19T12:15:44.969Z,7.78
2019-03-19T12:18:13.745Z,10.85
2019-03-19T12:20:42.529Z,13.88
2019-03-19T12:23:11.412Z,16.55
2019-03-19T12:25:40.184Z,12.18
2019-03-19T12:28:09.223Z,18.15
2019-03-19T12:30:38.014Z,13.15
2019-03-19T12:33:06.788Z,11.83
2019-03-19T12:35:35.548Z,11.08
2019-03-19T12:38:04.356Z,13.62
2019-03-19T12:40:37.133Z,14.35
2019-03-19T12:43:03.609Z,11.30
2019-03-19T12:45:32.416Z,12.47
2019-03-19T12:48:01.193Z,11.57
2019-03-19T12:50:29.954Z,13.85
2019-03-19T12:52:58.753Z,12.37
2019-03-19T12:55:27.529Z,12.53
2019-03-19T12:57:56.378Z,10.40
2019-03-19T13:00:34.238Z,12.33
2019-03-19T13:02:59.111Z,8.75
2019-03-19T13:05:27.934Z,9.53
2019-03-19T13:07:56.727Z,8.53
2019-03-19T13:10:25.663Z,12.03
2019-03-19T13:12:54.434Z,11.43
2019-03-19T13:15:23.498Z,15.28
2019-03-19T13:17:52.278Z,9.30
2019-03-19T13:20:22.459Z,9.70
2019-03-19T13:22:51.318Z,9.65
2019-03-19T13:25:24.518Z,8.10
2019-03-19T13:27:53.456Z,10.85
2019-03-19T13:30:26.728Z,10.78
2019-03-19T13:32:55.501Z,12.88
2019-03-19T13:35:24.256Z,12.07
2019-03-19T13:37:53.030Z,13.98
2019-03-19T13:40:21.808Z,12.78
2019-03-19T13:42:50.658Z,11.12
2019-03-19T13:45:22.025Z,13.72
2019-03-19T13:47:50.800Z,9.95
2019-03-19T13:50:20.280Z,11.90
2019-03-19T13:52:49.437Z,11.78
2019-03-19T13:55:19.734Z,9.40
2019-03-19T13:57:48.507Z,11.55
2019-03-19T14:00:19.315Z,11.45
2019-03-19T14:02:48.174Z,12.85
2019-03-19T14:05:17.609Z,12.25
2019-03-19T14:07:46.477Z,10.00
2019-03-19T14:10:20.221Z,8.98
2019-03-19T14:12:49.432Z,9.70
2019-03-19T14:15:23.451Z,8.18
2019-03-19T14:17:52.636Z,10.85
2019-03-19T14:20:21.738Z,7.65
2019-03-19T14:22:50.606Z,8.05
2019-03-19T14:25:19.422Z,10.20
2019-03-19T14:27:48.276Z,10.50
2019-03-19T14:30:18.660Z,18.20
2019-03-19T14:32:47.507Z,13.95
2019-03-19T14:35:16.631Z,12.33
2019-03-19T14:37:45.637Z,9.63
2019-03-19T14:40:19.300Z,11.63
2019-03-19T14:42:48.164Z,10.85
2019-03-19T14:45:17.496Z,12.33
2019-03-19T14:47:46.261Z,15.30
2019-03-19T14:50:25.630Z,12.53
2019-03-19T14:52:54.478Z,12.98
2019-03-19T14:55:23.528Z,14.07
2019-03-19T14:57:52.352Z,11.38
2019-03-19T15:00:22.249Z,11.45
2019-03-19T15:02:51.097Z,11.53
2019-03-19T15:05:19.912Z,21.93
2019-03-19T15:07:48.763Z,11.70
2019-03-19T15:10:24.272Z,12.07
2019-03-19T15:12:53.164Z,10.78
2019-03-19T15:15:22.371Z,9.75
2019-03-19T15:17:51.137Z,15.28
2019-03-19T15:20:23.234Z,12.07
2019-03-19T15:22:52.085Z,15.23
2019-03-19T15:25:20.876Z,15.43
2019-03-19T15:27:50.035Z,14.65
2019-03-19T15:30:19.916Z,11.22
2019-03-19T15:32:48.949Z,10.13
2019-03-19T15:35:18.099Z,10.03
2019-03-19T15:37:46.941Z,9.68
2019-03-19T15:40:20.194Z,12.82
2019-03-19T15:42:49.060Z,10.40
2019-03-19T15:45:25.893Z,9.33
2019-03-19T15:47:54.716Z,11.95
2019-03-19T15:50:23.547Z,10.60
2019-03-19T15:52:52.304Z,10.13
2019-03-19T15:55:21.139Z,11.03
2019-03-19T15:57:49.919Z,12.33
2019-03-19T16:00:19.892Z,13.43
2019-03-19T16:02:48.983Z,16.00
2019-03-19T16:05:17.836Z,18.17
2019-03-19T16:07:46.682Z,16.82
2019-03-19T16:10:17.489Z,19.57
2019-03-19T16:12:46.261Z,14.28
2019-03-19T16:15:20.557Z,11.90
2019-03-19T16:17:49.478Z,21.15
2019-03-19T16:20:19.471Z,15.20
2019-03-19T16:22:48.248Z,14.68
2019-03-19T16:25:17.035Z,14.98
2019-03-19T16:27:45.811Z,15.80
2019-03-19T16:30:18.595Z,13.38
2019-03-19T16:32:47.458Z,14.83
2019-03-19T16:35:17.108Z,14.05
2019-03-19T16:37:45.888Z,13.28
2019-03-19T16:40:22.571Z,11.63
2019-03-19T16:42:51.357Z,12.15
2019-03-19T16:45:20.139Z,15.60
2019-03-19T16:47:48.935Z,16.17
2019-03-19T16:50:20.019Z,24.43
2019-03-19T16:52:48.867Z,19.35
2019-03-19T16:55:18.679Z,45.28
2019-03-19T16:57:47.557Z,25.90
2019-03-19T17:00:24.738Z,47.95
2019-03-19T17:02:53.526Z,17.55
2019-03-19T17:05:22.362Z,17.98
2019-03-19T17:07:51.175Z,14.13
2019-03-19T17:10:26.079Z,12.47
2019-03-19T17:12:54.923Z,19.67
2019-03-19T17:15:23.741Z,16.45
2019-03-19T17:17:52.518Z,12.53
2019-03-19T17:20:21.289Z,13.40
2019-03-19T17:22:50.093Z,14.13
2019-03-19T17:25:23.781Z,13.38
2019-03-19T17:27:52.547Z,17.27
2019-03-19T17:30:25.449Z,30.43
2019-03-19T17:35:22.374Z,100.78
2019-03-19T17:37:51.176Z,92.45
2019-03-19T17:40:19.970Z,154.55
2019-03-19T17:42:48.741Z,62.00
2019-03-19T17:45:17.625Z,120.47
2019-03-19T17:47:46.479Z,38.60
2019-03-19T17:50:26.613Z,29.12
2019-03-19T17:52:56.366Z,48.70
2019-03-19T17:55:25.362Z,18.87
2019-03-19T17:57:54.235Z,21.02
2019-03-19T18:00:24.646Z,20.02
2019-03-19T18:02:53.470Z,19.15
2019-03-19T18:05:22.446Z,25.37
2019-03-19T18:07:51.302Z,17.17
2019-03-19T18:10:20.139Z,17.42
2019-03-19T18:12:48.934Z,18.65
2019-03-19T18:15:18.786Z,22.50
2019-03-19T18:17:47.597Z,21.70
2019-03-19T18:20:17.709Z,51.00
2019-03-19T18:22:46.575Z,42.83
2019-03-19T18:25:19.941Z,34.58
2019-03-19T18:27:48.749Z,18.92
2019-03-19T18:30:21.358Z,18.80
2019-03-19T18:32:50.198Z,20.95
2019-03-19T18:35:19.095Z,23.55
2019-03-19T18:37:47.942Z,23.87
2019-03-19T18:40:20.633Z,23.18
2019-03-19T18:42:49.461Z,25.80
2019-03-19T18:45:21.800Z,21.62
2019-03-19T18:47:50.600Z,21.70
2019-03-19T18:50:22.748Z,23.80
2019-03-19T18:52:51.591Z,26.30
2019-03-19T18:55:20.721Z,21.05
2019-03-19T18:57:49.518Z,21.70
2019-03-19T19:00:21.034Z,18.55
2019-03-19T19:02:51.068Z,23.70
2019-03-19T19:05:23.863Z,25.48
2019-03-19T19:07:52.727Z,21.73
2019-03-19T19:10:21.883Z,24.47
2019-03-19T19:12:50.746Z,22.45
2019-03-19T19:15:23.803Z,25.30
2019-03-19T19:17:52.595Z,30.70
2019-03-19T19:20:21.501Z,20.50
2019-03-19T19:22:50.295Z,20.23
2019-03-19T19:25:21.265Z,20.80
2019-03-19T19:27:50.091Z,21.65
2019-03-19T19:30:21.525Z,20.88
2019-03-19T19:33:01.017Z,20.02
2019-03-19T19:35:20.818Z,18.57
2019-03-19T19:37:49.665Z,17.77
2019-03-19T19:40:18.636Z,20.97
2019-03-19T19:42:47.503Z,19.30
2019-03-19T19:45:17.518Z,16.15
2019-03-19T19:47:46.311Z,19.32
2019-03-19T19:50:19.296Z,21.85
2019-03-19T19:52:48.150Z,20.08
2019-03-19T19:55:16.989Z,15.93
2019-03-19T19:57:45.787Z,19.20
2019-03-19T20:00:22.585Z,16.05
2019-03-19T20:02:51.454Z,15.63
2019-03-19T20:05:20.239Z,21.97
2019-03-19T20:07:49.076Z,17.73
2019-03-19T20:10:19.511Z,19.90
2019-03-19T20:12:48.301Z,17.15
2019-03-19T20:15:17.070Z,21.68
2019-03-19T20:17:46.047Z,16.23
2019-03-19T20:20:26.481Z,19.52
2019-03-19T20:22:55.273Z,19.12
2019-03-19T20:25:24.465Z,16.67
2019-03-19T20:27:53.239Z,19.17
2019-03-19T20:30:29.484Z,16.07
2019-03-19T20:32:58.332Z,18.50
2019-03-19T20:35:27.096Z,19.10
2019-03-19T20:37:55.884Z,22.25
2019-03-19T20:40:24.709Z,18.62
2019-03-19T20:42:53.473Z,21.48
2019-03-19T20:45:24.209Z,20.37
2019-03-19T20:47:52.981Z,17.15
2019-03-19T20:50:33.658Z,19.17
2019-03-19T20:53:02.444Z,18.90
2019-03-19T20:55:31.303Z,20.10
2019-03-19T20:58:00.603Z,20.12
2019-03-19T21:00:29.431Z,16.65
2019-03-19T21:02:58.191Z,23.15
2019-03-19T21:05:26.971Z,19.82
2019-03-19T21:07:55.747Z,21.15
2019-03-19T21:10:25.456Z,25.27
2019-03-19T21:12:54.252Z,21.25
2019-03-19T21:15:28.564Z,19.07
2019-03-19T21:17:57.334Z,19.92
2019-03-19T21:20:26.143Z,18.67
2019-03-19T21:22:54.977Z,19.70
2019-03-19T21:25:23.741Z,17.10
2019-03-19T21:27:52.541Z,17.37
2019-03-19T21:30:22.457Z,15.05
2019-03-19T21:32:51.223Z,18.27
2019-03-19T21:35:21.259Z,19.95
2019-03-19T21:37:50.167Z,18.30
2019-03-19T21:40:19.018Z,19.02
2019-03-19T21:42:47.883Z,18.80
2019-03-19T21:45:21.862Z,20.72
2019-03-19T21:47:50.641Z,20.08
2019-03-19T21:50:21.079Z,25.97
2019-03-19T21:52:49.837Z,20.72
2019-03-19T21:55:18.611Z,22.32
2019-03-19T21:57:47.405Z,21.27
2019-03-19T22:00:18.680Z,19.52
2019-03-19T22:02:47.448Z,20.17
2019-03-19T22:05:16.622Z,19.55
2019-03-19T22:07:45.726Z,25.70
2019-03-19T22:10:20.096Z,22.30
2019-03-19T22:12:49.525Z,25.72
2019-03-19T22:15:21.215Z,25.80
2019-03-19T22:17:50.013Z,25.05
2019-03-19T22:20:18.818Z,21.87
2019-03-19T22:22:47.594Z,26.23
2019-03-19T22:25:16.435Z,21.77
2019-03-19T22:27:45.219Z,19.20
2019-03-19T22:30:21.845Z,21.23
2019-03-19T22:32:50.713Z,23.65
2019-03-19T22:35:19.809Z,20.32
2019-03-19T22:37:48.655Z,21.77
2019-03-19T22:40:18.260Z,20.08
2019-03-19T22:42:47.058Z,22.17
2019-03-19T22:45:16.891Z,26.20
2019-03-19T22:47:46.108Z,24.02
2019-03-19T22:50:15.998Z,23.98
2019-03-19T22:52:44.757Z,25.45
2019-03-19T22:55:14.314Z,23.12
2019-03-19T22:57:43.229Z,24.98
2019-03-19T23:00:20.041Z,25.75
2019-03-19T23:02:48.904Z,22.85
2019-03-19T23:05:17.667Z,28.35
2019-03-19T23:07:46.473Z,21.95
2019-03-19T23:10:15.253Z,28.12
2019-03-19T23:12:44.446Z,25.90
2019-03-19T23:15:13.661Z,26.50
2019-03-19T23:17:42.504Z,23.15
2019-03-19T23:20:14.635Z,23.30
2019-03-19T23:22:43.514Z,23.38
2019-03-19T23:25:12.297Z,24.05
2019-03-19T23:27:41.060Z,22.82
2019-03-19T23:30:18.359Z,22.42
2019-03-19T23:32:47.123Z,24.80
2019-03-19T23:35:15.972Z,23.25
2019-03-19T23:37:44.853Z,24.98
2019-03-19T23:40:15.567Z,27.02
2019-03-19T23:42:44.783Z,21.75
2019-03-19T23:45:14.122Z,24.45
2019-03-19T23:47:43.168Z,26.68
2019-03-19T23:50:14.331Z,19.52
2019-03-19T23:52:43.142Z,22.15
2019-03-19T23:55:12.016Z,23.87
2019-03-19T23:57:40.822Z,20.27
